sensor_id;sensor_type;location;lat;lon;timestamp;temperature;humidity
2447;DHT22;26430;48.818;9.244;2022-07-29T00:00:39;20.90;99.90
2447;DHT22;26430;48.818;9.244;2022-07-29T00:03:05;20.90;99.90
2447;DHT22;26430;48.818;9.244;2022-07-29T00:05:31;21.10;99.90
2447;DHT22;26430;48.818;9.244;2022-07-29T00:07:56;21.10;99.90
2447;DHT22;26430;48.818;9.244;2022-07-29T00:10:22;21.30;99.90
2447;DHT22;26430;48.818;9.244;2022-07-29T00:12:48;21.40;99.90
2447;DHT22;26430;48.818;9.244;2022-07-29T00:15:14;21.40;99.90
2447;DHT22;26430;48.818;9.244;2022-07-29T00:17:39;21.50;99.90
2447;DHT22;26430;48.818;9.244;2022-07-29T00:20:05;21.60;99.90
2447;DHT22;26430;48.818;9.244;2022-07-29T00:22:31;21.60;99.90
2447;DHT22;26430;48.818;9.244;2022-07-29T00:24:57;21.60;99.90
2447;DHT22;26430;48.818;9.244;2022-07-29T00:27:23;21.50;99.90
2447;DHT22;26430;48.818;9.244;2022-07-29T00:29:49;21.50;99.90
2447;DHT22;26430;48.818;9.244;2022-07-29T00:32:14;21.50;99.90
2447;DHT22;26430;48.818;9.244;2022-07-29T00:34:40;21.60;99.90
2447;DHT22;26430;48.818;9.244;2022-07-29T00:37:24;21.60;99.90
2447;DHT22;26430;48.818;9.244;2022-07-29T00:39:50;21.70;99.90
2447;DHT22;26430;48.818;9.244;2022-07-29T00:42:16;21.70;99.90
2447;DHT22;26430;48.818;9.244;2022-07-29T00:44:43;21.10;99.90
2447;DHT22;26430;48.818;9.244;2022-07-29T00:47:10;20.80;99.90
2447;DHT22;26430;48.818;9.244;2022-07-29T00:49:37;20.30;99.90
2447;DHT22;26430;48.818;9.244;2022-07-29T00:52:04;20.20;99.90
2447;DHT22;26430;48.818;9.244;2022-07-29T00:54:30;20.00;99.90
2447;DHT22;26430;48.818;9.244;2022-07-29T00:57:00;19.80;99.90
2447;DHT22;26430;48.818;9.244;2022-07-29T00:59:27;19.90;99.90
2447;DHT22;26430;48.818;9.244;2022-07-29T01:01:54;19.90;99.90
2447;DHT22;26430;48.818;9.244;2022-07-29T01:04:20;20.00;99.90
2447;DHT22;26430;48.818;9.244;2022-07-29T01:06:47;20.00;99.90
2447;DHT22;26430;48.818;9.244;2022-07-29T01:09:14;20.10;99.90
2447;DHT22;26430;48.818;9.244;2022-07-29T01:11:40;20.00;99.90
2447;DHT22;26430;48.818;9.244;2022-07-29T01:14:07;20.10;99.90
2447;DHT22;26430;48.818;9.244;2022-07-29T01:31:11;20.10;99.90
2447;DHT22;26430;48.818;9.244;2022-07-29T01:33:43;20.10;99.90
2447;DHT22;26430;48.818;9.244;2022-07-29T01:36:51;20.10;99.90
2447;DHT22;26430;48.818;9.244;2022-07-29T01:39:27;20.00;99.90
2447;DHT22;26430;48.818;9.244;2022-07-29T01:42:04;20.10;99.90
2447;DHT22;26430;48.818;9.244;2022-07-29T01:44:34;20.10;99.90
2447;DHT22;26430;48.818;9.244;2022-07-29T01:47:11;20.00;99.90
2447;DHT22;26430;48.818;9.244;2022-07-29T01:49:43;20.00;99.90
2447;DHT22;26430;48.818;9.244;2022-07-29T01:52:18;19.80;99.90
2447;DHT22;26430;48.818;9.244;2022-07-29T01:54:50;19.80;99.90
2447;DHT22;26430;48.818;9.244;2022-07-29T01:57:18;19.80;99.90
2447;DHT22;26430;48.818;9.244;2022-07-29T01:59:47;19.80;99.90
2447;DHT22;26430;48.818;9.244;2022-07-29T02:02:15;19.80;99.90
2447;DHT22;26430;48.818;9.244;2022-07-29T02:04:43;19.90;99.90
2447;DHT22;26430;48.818;9.244;2022-07-29T02:07:13;19.80;99.90
2447;DHT22;26430;48.818;9.244;2022-07-29T02:09:41;19.80;99.90
2447;DHT22;26430;48.818;9.244;2022-07-29T02:12:08;19.70;99.90
2447;DHT22;26430;48.818;9.244;2022-07-29T02:14:42;19.60;99.90
2447;DHT22;26430;48.818;9.244;2022-07-29T02:17:10;19.70;99.90
2447;DHT22;26430;48.818;9.244;2022-07-29T02:19:38;19.60;99.90
2447;DHT22;26430;48.818;9.244;2022-07-29T02:22:05;19.70;99.90
2447;DHT22;26430;48.818;9.244;2022-07-29T02:24:33;19.70;99.90
2447;DHT22;26430;48.818;9.244;2022-07-29T02:27:02;19.60;99.90
2447;DHT22;26430;48.818;9.244;2022-07-29T02:29:29;19.60;99.90
2447;DHT22;26430;48.818;9.244;2022-07-29T02:31:57;19.60;99.90
2447;DHT22;26430;48.818;9.244;2022-07-29T02:34:24;19.70;99.90
2447;DHT22;26430;48.818;9.244;2022-07-29T02:36:51;19.90;99.90
2447;DHT22;26430;48.818;9.244;2022-07-29T02:39:18;20.10;99.90
2447;DHT22;26430;48.818;9.244;2022-07-29T02:41:50;20.20;99.90
2447;DHT22;26430;48.818;9.244;2022-07-29T02:44:24;20.30;99.90
2447;DHT22;26430;48.818;9.244;2022-07-29T02:47:02;20.50;99.90
2447;DHT22;26430;48.818;9.244;2022-07-29T02:49:59;20.60;99.90
2447;DHT22;26430;48.818;9.244;2022-07-29T02:52:47;20.60;99.90
2447;DHT22;26430;48.818;9.244;2022-07-29T02:55:23;20.60;99.90
2447;DHT22;26430;48.818;9.244;2022-07-29T02:58:37;20.60;99.90
2447;DHT22;26430;48.818;9.244;2022-07-29T03:01:08;20.60;99.90
2447;DHT22;26430;48.818;9.244;2022-07-29T03:03:37;20.60;99.90
2447;DHT22;26430;48.818;9.244;2022-07-29T03:06:05;20.50;99.90
2447;DHT22;26430;48.818;9.244;2022-07-29T03:08:34;20.50;99.90
2447;DHT22;26430;48.818;9.244;2022-07-29T03:11:00;20.50;99.90
2447;DHT22;26430;48.818;9.244;2022-07-29T03:13:27;20.40;99.90
2447;DHT22;26430;48.818;9.244;2022-07-29T03:15:55;20.40;99.90
2447;DHT22;26430;48.818;9.244;2022-07-29T03:18:21;20.50;99.90
2447;DHT22;26430;48.818;9.244;2022-07-29T03:20:47;20.60;99.90
2447;DHT22;26430;48.818;9.244;2022-07-29T03:23:18;20.90;99.90
2447;DHT22;26430;48.818;9.244;2022-07-29T03:25:45;20.90;99.90
2447;DHT22;26430;48.818;9.244;2022-07-29T03:28:11;20.90;99.90
2447;DHT22;26430;48.818;9.244;2022-07-29T03:30:36;21.10;99.90
2447;DHT22;26430;48.818;9.244;2022-07-29T03:33:02;21.00;99.90
2447;DHT22;26430;48.818;9.244;2022-07-29T03:35:28;21.00;99.90
2447;DHT22;26430;48.818;9.244;2022-07-29T03:37:55;21.10;99.90
2447;DHT22;26430;48.818;9.244;2022-07-29T03:40:25;21.20;99.90
2447;DHT22;26430;48.818;9.244;2022-07-29T03:42:54;21.20;99.90
2447;DHT22;26430;48.818;9.244;2022-07-29T03:45:21;21.00;99.90
2447;DHT22;26430;48.818;9.244;2022-07-29T03:47:55;20.80;99.90
2447;DHT22;26430;48.818;9.244;2022-07-29T03:50:22;21.10;99.90
2447;DHT22;26430;48.818;9.244;2022-07-29T03:52:49;21.20;99.90
2447;DHT22;26430;48.818;9.244;2022-07-29T03:55:15;20.90;99.90
2447;DHT22;26430;48.818;9.244;2022-07-29T03:57:41;20.70;99.90
2447;DHT22;26430;48.818;9.244;2022-07-29T04:00:08;20.60;99.90
2447;DHT22;26430;48.818;9.244;2022-07-29T04:02:34;20.60;99.90
2447;DHT22;26430;48.818;9.244;2022-07-29T04:05:01;20.50;99.90
2447;DHT22;26430;48.818;9.244;2022-07-29T04:07:26;20.50;99.90
2447;DHT22;26430;48.818;9.244;2022-07-29T04:09:52;20.60;99.90
2447;DHT22;26430;48.818;9.244;2022-07-29T04:12:18;20.60;99.90
2447;DHT22;26430;48.818;9.244;2022-07-29T04:14:43;20.50;99.90
2447;DHT22;26430;48.818;9.244;2022-07-29T04:17:09;20.40;99.90
2447;DHT22;26430;48.818;9.244;2022-07-29T04:19:35;20.40;99.90
2447;DHT22;26430;48.818;9.244;2022-07-29T04:22:01;20.40;99.90
2447;DHT22;26430;48.818;9.244;2022-07-29T04:24:27;20.40;99.90
2447;DHT22;26430;48.818;9.244;2022-07-29T04:26:53;20.40;99.90
2447;DHT22;26430;48.818;9.244;2022-07-29T04:29:19;20.30;99.90
2447;DHT22;26430;48.818;9.244;2022-07-29T04:31:45;20.30;99.90
2447;DHT22;26430;48.818;9.244;2022-07-29T04:34:11;20.50;99.90
2447;DHT22;26430;48.818;9.244;2022-07-29T04:36:37;20.50;99.90
2447;DHT22;26430;48.818;9.244;2022-07-29T04:39:03;20.50;99.90
2447;DHT22;26430;48.818;9.244;2022-07-29T04:41:28;20.30;99.90
2447;DHT22;26430;48.818;9.244;2022-07-29T04:43:54;20.30;99.90
2447;DHT22;26430;48.818;9.244;2022-07-29T04:46:20;20.30;99.90
2447;DHT22;26430;48.818;9.244;2022-07-29T04:48:46;20.40;99.90
2447;DHT22;26430;48.818;9.244;2022-07-29T04:51:13;20.50;99.90
2447;DHT22;26430;48.818;9.244;2022-07-29T04:53:39;20.40;99.90
2447;DHT22;26430;48.818;9.244;2022-07-29T04:56:05;20.50;99.90
2447;DHT22;26430;48.818;9.244;2022-07-29T04:58:30;20.50;99.90
2447;DHT22;26430;48.818;9.244;2022-07-29T05:00:56;20.60;99.90
2447;DHT22;26430;48.818;9.244;2022-07-29T05:03:22;20.70;99.90
2447;DHT22;26430;48.818;9.244;2022-07-29T05:05:47;20.60;99.90
2447;DHT22;26430;48.818;9.244;2022-07-29T05:08:13;20.50;99.90
2447;DHT22;26430;48.818;9.244;2022-07-29T05:10:39;20.30;99.90
2447;DHT22;26430;48.818;9.244;2022-07-29T05:13:05;20.20;99.90
2447;DHT22;26430;48.818;9.244;2022-07-29T05:15:32;20.20;99.90
2447;DHT22;26430;48.818;9.244;2022-07-29T05:17:58;20.10;99.90
2447;DHT22;26430;48.818;9.244;2022-07-29T05:20:24;20.10;99.90
2447;DHT22;26430;48.818;9.244;2022-07-29T05:22:57;20.00;99.90
2447;DHT22;26430;48.818;9.244;2022-07-29T05:25:24;20.00;99.90
2447;DHT22;26430;48.818;9.244;2022-07-29T05:27:50;20.30;99.90
2447;DHT22;26430;48.818;9.244;2022-07-29T05:30:16;20.20;99.90
2447;DHT22;26430;48.818;9.244;2022-07-29T05:32:41;20.20;99.90
2447;DHT22;26430;48.818;9.244;2022-07-29T05:35:07;20.20;99.90
2447;DHT22;26430;48.818;9.244;2022-07-29T05:37:33;20.00;99.90
2447;DHT22;26430;48.818;9.244;2022-07-29T05:39:59;19.90;99.90
2447;DHT22;26430;48.818;9.244;2022-07-29T05:42:25;19.90;99.90
2447;DHT22;26430;48.818;9.244;2022-07-29T05:47:17;20.20;99.90
2447;DHT22;26430;48.818;9.244;2022-07-29T05:49:43;20.00;99.90
2447;DHT22;26430;48.818;9.244;2022-07-29T05:52:08;20.10;99.90
2447;DHT22;26430;48.818;9.244;2022-07-29T05:54:35;20.20;99.90
2447;DHT22;26430;48.818;9.244;2022-07-29T05:57:00;20.30;99.90
2447;DHT22;26430;48.818;9.244;2022-07-29T05:59:26;20.30;99.90
2447;DHT22;26430;48.818;9.244;2022-07-29T06:01:52;20.40;99.90
2447;DHT22;26430;48.818;9.244;2022-07-29T06:04:17;20.40;99.90
2447;DHT22;26430;48.818;9.244;2022-07-29T06:06:43;20.40;99.90
2447;DHT22;26430;48.818;9.244;2022-07-29T06:09:08;20.50;99.90
2447;DHT22;26430;48.818;9.244;2022-07-29T06:11:34;20.60;99.90
2447;DHT22;26430;48.818;9.244;2022-07-29T06:14:00;20.50;99.90
2447;DHT22;26430;48.818;9.244;2022-07-29T06:16:25;20.50;99.90
2447;DHT22;26430;48.818;9.244;2022-07-29T06:18:51;20.40;99.90
2447;DHT22;26430;48.818;9.244;2022-07-29T06:21:17;20.50;99.90
2447;DHT22;26430;48.818;9.244;2022-07-29T06:23:44;20.60;99.90
2447;DHT22;26430;48.818;9.244;2022-07-29T06:26:11;20.60;99.90
2447;DHT22;26430;48.818;9.244;2022-07-29T06:28:37;20.70;99.90
2447;DHT22;26430;48.818;9.244;2022-07-29T06:31:03;20.80;99.90
2447;DHT22;26430;48.818;9.244;2022-07-29T06:33:28;20.90;99.90
2447;DHT22;26430;48.818;9.244;2022-07-29T06:35:54;20.90;99.90
2447;DHT22;26430;48.818;9.244;2022-07-29T06:38:20;21.10;99.90
2447;DHT22;26430;48.818;9.244;2022-07-29T06:40:46;21.30;99.90
2447;DHT22;26430;48.818;9.244;2022-07-29T06:43:35;21.50;99.90
2447;DHT22;26430;48.818;9.244;2022-07-29T06:46:05;21.50;99.90
2447;DHT22;26430;48.818;9.244;2022-07-29T06:48:31;21.50;99.90
2447;DHT22;26430;48.818;9.244;2022-07-29T06:50:57;21.50;99.90
2447;DHT22;26430;48.818;9.244;2022-07-29T06:53:23;21.60;99.90
2447;DHT22;26430;48.818;9.244;2022-07-29T06:55:49;21.60;99.90
2447;DHT22;26430;48.818;9.244;2022-07-29T06:58:15;21.60;99.90
2447;DHT22;26430;48.818;9.244;2022-07-29T07:00:42;21.70;99.90
2447;DHT22;26430;48.818;9.244;2022-07-29T07:03:07;21.80;99.90
2447;DHT22;26430;48.818;9.244;2022-07-29T07:05:33;21.70;99.90
2447;DHT22;26430;48.818;9.244;2022-07-29T07:07:59;21.80;99.90
2447;DHT22;26430;48.818;9.244;2022-07-29T07:10:24;22.00;99.90
2447;DHT22;26430;48.818;9.244;2022-07-29T07:12:50;22.10;99.90
2447;DHT22;26430;48.818;9.244;2022-07-29T07:15:17;22.30;99.90
2447;DHT22;26430;48.818;9.244;2022-07-29T07:17:49;22.40;99.90
2447;DHT22;26430;48.818;9.244;2022-07-29T07:20:16;22.60;99.90
2447;DHT22;26430;48.818;9.244;2022-07-29T07:22:43;22.80;99.90
2447;DHT22;26430;48.818;9.244;2022-07-29T07:25:09;22.90;99.90
2447;DHT22;26430;48.818;9.244;2022-07-29T07:27:35;22.60;99.90
2447;DHT22;26430;48.818;9.244;2022-07-29T07:30:03;22.60;99.90
2447;DHT22;26430;48.818;9.244;2022-07-29T07:32:31;22.90;99.90
2447;DHT22;26430;48.818;9.244;2022-07-29T07:34:57;23.10;99.90
2447;DHT22;26430;48.818;9.244;2022-07-29T07:37:24;22.90;99.90
2447;DHT22;26430;48.818;9.244;2022-07-29T07:39:52;23.10;99.90
2447;DHT22;26430;48.818;9.244;2022-07-29T07:42:18;23.00;99.90
2447;DHT22;26430;48.818;9.244;2022-07-29T07:44:43;23.20;99.90
2447;DHT22;26430;48.818;9.244;2022-07-29T07:47:11;23.20;99.90
2447;DHT22;26430;48.818;9.244;2022-07-29T07:49:37;23.00;99.90
2447;DHT22;26430;48.818;9.244;2022-07-29T07:52:02;23.10;99.90
2447;DHT22;26430;48.818;9.244;2022-07-29T07:54:28;23.30;99.90
2447;DHT22;26430;48.818;9.244;2022-07-29T07:56:54;23.50;99.90
2447;DHT22;26430;48.818;9.244;2022-07-29T07:59:19;23.60;99.90
2447;DHT22;26430;48.818;9.244;2022-07-29T08:01:46;23.60;99.90
2447;DHT22;26430;48.818;9.244;2022-07-29T08:04:11;23.50;99.90
2447;DHT22;26430;48.818;9.244;2022-07-29T08:06:37;23.50;99.90
2447;DHT22;26430;48.818;9.244;2022-07-29T08:09:04;23.50;99.90
2447;DHT22;26430;48.818;9.244;2022-07-29T08:11:30;23.50;99.90
2447;DHT22;26430;48.818;9.244;2022-07-29T08:13:56;23.60;99.90
2447;DHT22;26430;48.818;9.244;2022-07-29T08:16:21;23.80;99.90
2447;DHT22;26430;48.818;9.244;2022-07-29T08:18:47;24.10;99.90
2447;DHT22;26430;48.818;9.244;2022-07-29T08:21:14;24.40;99.90
2447;DHT22;26430;48.818;9.244;2022-07-29T08:23:40;24.40;99.90
2447;DHT22;26430;48.818;9.244;2022-07-29T08:26:11;24.50;99.90
2447;DHT22;26430;48.818;9.244;2022-07-29T08:28:39;24.50;99.90
2447;DHT22;26430;48.818;9.244;2022-07-29T08:31:05;24.60;99.90
2447;DHT22;26430;48.818;9.244;2022-07-29T08:33:32;24.60;99.90
2447;DHT22;26430;48.818;9.244;2022-07-29T08:35:58;24.70;99.90
2447;DHT22;26430;48.818;9.244;2022-07-29T08:38:25;24.50;99.90
2447;DHT22;26430;48.818;9.244;2022-07-29T08:40:52;24.60;99.90
2447;DHT22;26430;48.818;9.244;2022-07-29T08:43:18;24.40;99.90
2447;DHT22;26430;48.818;9.244;2022-07-29T08:45:51;24.40;99.90
2447;DHT22;26430;48.818;9.244;2022-07-29T08:48:22;24.60;99.90
2447;DHT22;26430;48.818;9.244;2022-07-29T08:50:52;24.50;99.90
2447;DHT22;26430;48.818;9.244;2022-07-29T08:53:18;24.60;99.90
2447;DHT22;26430;48.818;9.244;2022-07-29T08:55:46;24.90;99.90
2447;DHT22;26430;48.818;9.244;2022-07-29T08:58:13;25.00;99.90
2447;DHT22;26430;48.818;9.244;2022-07-29T09:00:51;25.20;99.90
2447;DHT22;26430;48.818;9.244;2022-07-29T09:03:20;25.20;99.90
2447;DHT22;26430;48.818;9.244;2022-07-29T09:05:49;24.90;99.90
2447;DHT22;26430;48.818;9.244;2022-07-29T09:08:16;24.90;99.90
2447;DHT22;26430;48.818;9.244;2022-07-29T09:10:43;24.80;99.90
2447;DHT22;26430;48.818;9.244;2022-07-29T09:13:11;24.90;99.90
2447;DHT22;26430;48.818;9.244;2022-07-29T09:15:37;25.10;99.90
2447;DHT22;26430;48.818;9.244;2022-07-29T09:18:03;25.30;99.90
2447;DHT22;26430;48.818;9.244;2022-07-29T09:20:29;25.30;99.90
2447;DHT22;26430;48.818;9.244;2022-07-29T09:23:14;25.40;99.90
2447;DHT22;26430;48.818;9.244;2022-07-29T09:25:41;25.50;99.90
2447;DHT22;26430;48.818;9.244;2022-07-29T09:28:11;25.70;99.90
2447;DHT22;26430;48.818;9.244;2022-07-29T09:30:51;25.80;99.90
2447;DHT22;26430;48.818;9.244;2022-07-29T09:33:17;26.00;99.90
2447;DHT22;26430;48.818;9.244;2022-07-29T09:35:43;26.20;99.90
2447;DHT22;26430;48.818;9.244;2022-07-29T09:38:13;26.30;99.90
2447;DHT22;26430;48.818;9.244;2022-07-29T09:40:39;26.30;99.90
2447;DHT22;26430;48.818;9.244;2022-07-29T09:43:12;26.10;99.90
2447;DHT22;26430;48.818;9.244;2022-07-29T09:45:38;26.20;99.90
2447;DHT22;26430;48.818;9.244;2022-07-29T09:48:24;26.30;99.90
2447;DHT22;26430;48.818;9.244;2022-07-29T09:50:50;26.50;99.90
2447;DHT22;26430;48.818;9.244;2022-07-29T09:53:36;26.50;99.90
2447;DHT22;26430;48.818;9.244;2022-07-29T09:56:03;26.70;99.90
2447;DHT22;26430;48.818;9.244;2022-07-29T09:58:30;26.80;99.90
2447;DHT22;26430;48.818;9.244;2022-07-29T10:00:56;26.90;99.90
2447;DHT22;26430;48.818;9.244;2022-07-29T10:03:23;26.90;99.90
2447;DHT22;26430;48.818;9.244;2022-07-29T10:06:05;26.80;99.90
2447;DHT22;26430;48.818;9.244;2022-07-29T10:08:31;27.00;99.90
2447;DHT22;26430;48.818;9.244;2022-07-29T10:11:16;27.20;99.90
2447;DHT22;26430;48.818;9.244;2022-07-29T10:13:43;27.40;99.90
2447;DHT22;26430;48.818;9.244;2022-07-29T10:16:10;27.50;99.90
2447;DHT22;26430;48.818;9.244;2022-07-29T10:18:41;27.60;99.90
2447;DHT22;26430;48.818;9.244;2022-07-29T10:21:07;27.70;99.90
2447;DHT22;26430;48.818;9.244;2022-07-29T10:23:34;27.80;99.90
2447;DHT22;26430;48.818;9.244;2022-07-29T10:26:00;27.60;99.90
2447;DHT22;26430;48.818;9.244;2022-07-29T10:28:27;27.70;99.90
2447;DHT22;26430;48.818;9.244;2022-07-29T10:31:00;27.80;99.90
2447;DHT22;26430;48.818;9.244;2022-07-29T10:44:21;27.50;99.90
2447;DHT22;26430;48.818;9.244;2022-07-29T10:46:48;27.30;99.90
2447;DHT22;26430;48.818;9.244;2022-07-29T10:49:15;27.10;99.90
2447;DHT22;26430;48.818;9.244;2022-07-29T10:54:17;26.80;99.90
2447;DHT22;26430;48.818;9.244;2022-07-29T10:56:43;26.80;99.90
2447;DHT22;26430;48.818;9.244;2022-07-29T11:01:44;26.50;99.90
2447;DHT22;26430;48.818;9.244;2022-07-29T11:04:10;26.40;99.90
2447;DHT22;26430;48.818;9.244;2022-07-29T11:09:30;26.10;99.90
2447;DHT22;26430;48.818;9.244;2022-07-29T11:11:56;26.00;99.90
2447;DHT22;26430;48.818;9.244;2022-07-29T11:17:19;25.50;99.90
2447;DHT22;26430;48.818;9.244;2022-07-29T11:19:45;25.30;99.90
2447;DHT22;26430;48.818;9.244;2022-07-29T11:22:12;25.20;99.90
2447;DHT22;26430;48.818;9.244;2022-07-29T11:25:15;25.10;99.90
2447;DHT22;26430;48.818;9.244;2022-07-29T11:27:41;24.30;99.90
2447;DHT22;26430;48.818;9.244;2022-07-29T11:30:08;23.50;99.90
2447;DHT22;26430;48.818;9.244;2022-07-29T11:32:40;22.60;99.90
2447;DHT22;26430;48.818;9.244;2022-07-29T11:37:35;22.10;99.90
2447;DHT22;26430;48.818;9.244;2022-07-29T11:42:36;21.80;99.90
2447;DHT22;26430;48.818;9.244;2022-07-29T11:45:19;21.20;99.90
2447;DHT22;26430;48.818;9.244;2022-07-29T11:47:50;21.00;99.90
2447;DHT22;26430;48.818;9.244;2022-07-29T11:50:29;20.80;99.90
2447;DHT22;26430;48.818;9.244;2022-07-29T11:52:56;20.80;99.90
2447;DHT22;26430;48.818;9.244;2022-07-29T11:55:23;20.70;99.90
2447;DHT22;26430;48.818;9.244;2022-07-29T11:57:54;20.80;99.90
2447;DHT22;26430;48.818;9.244;2022-07-29T12:00:40;20.90;99.90
2447;DHT22;26430;48.818;9.244;2022-07-29T12:03:08;21.20;99.90
2447;DHT22;26430;48.818;9.244;2022-07-29T12:05:44;21.50;99.90
2447;DHT22;26430;48.818;9.244;2022-07-29T12:08:17;21.50;99.90
2447;DHT22;26430;48.818;9.244;2022-07-29T12:10:48;21.50;99.90
2447;DHT22;26430;48.818;9.244;2022-07-29T12:13:16;21.30;99.90
2447;DHT22;26430;48.818;9.244;2022-07-29T12:15:42;21.30;99.90
2447;DHT22;26430;48.818;9.244;2022-07-29T12:18:20;21.10;99.90
2447;DHT22;26430;48.818;9.244;2022-07-29T12:20:47;21.00;99.90
2447;DHT22;26430;48.818;9.244;2022-07-29T12:23:13;21.00;99.90
2447;DHT22;26430;48.818;9.244;2022-07-29T12:25:41;21.30;99.90
2447;DHT22;26430;48.818;9.244;2022-07-29T12:28:10;21.50;99.90
2447;DHT22;26430;48.818;9.244;2022-07-29T12:30:45;21.50;99.90
2447;DHT22;26430;48.818;9.244;2022-07-29T12:33:31;21.80;99.90
2447;DHT22;26430;48.818;9.244;2022-07-29T12:35:59;21.90;99.90
2447;DHT22;26430;48.818;9.244;2022-07-29T12:38:25;21.60;99.90
2447;DHT22;26430;48.818;9.244;2022-07-29T12:40:53;21.60;99.90
2447;DHT22;26430;48.818;9.244;2022-07-29T12:43:23;21.50;99.90
2447;DHT22;26430;48.818;9.244;2022-07-29T12:45:54;21.50;99.90
2447;DHT22;26430;48.818;9.244;2022-07-29T12:48:37;21.20;99.90
2447;DHT22;26430;48.818;9.244;2022-07-29T12:51:04;20.90;99.90
2447;DHT22;26430;48.818;9.244;2022-07-29T12:53:31;21.00;99.90
2447;DHT22;26430;48.818;9.244;2022-07-29T12:55:58;21.00;99.90
2447;DHT22;26430;48.818;9.244;2022-07-29T12:58:34;20.90;99.90
2447;DHT22;26430;48.818;9.244;2022-07-29T13:01:13;20.90;99.90
2447;DHT22;26430;48.818;9.244;2022-07-29T13:06:34;20.70;99.90
2447;DHT22;26430;48.818;9.244;2022-07-29T13:09:13;20.50;99.90
2447;DHT22;26430;48.818;9.244;2022-07-29T13:11:44;20.50;99.90
2447;DHT22;26430;48.818;9.244;2022-07-29T13:17:09;20.20;99.90
2447;DHT22;26430;48.818;9.244;2022-07-29T13:20:13;20.30;99.90
2447;DHT22;26430;48.818;9.244;2022-07-29T13:22:42;20.40;99.90
2447;DHT22;26430;48.818;9.244;2022-07-29T13:25:09;20.50;99.90
2447;DHT22;26430;48.818;9.244;2022-07-29T13:27:37;20.50;99.90
2447;DHT22;26430;48.818;9.244;2022-07-29T13:30:08;20.60;99.90
2447;DHT22;26430;48.818;9.244;2022-07-29T13:32:35;20.70;99.90
2447;DHT22;26430;48.818;9.244;2022-07-29T13:35:04;20.50;99.90
2447;DHT22;26430;48.818;9.244;2022-07-29T13:37:30;20.10;99.90
2447;DHT22;26430;48.818;9.244;2022-07-29T13:39:56;20.00;99.90
2447;DHT22;26430;48.818;9.244;2022-07-29T13:42:23;19.70;99.90
2447;DHT22;26430;48.818;9.244;2022-07-29T13:44:48;19.60;99.90
2447;DHT22;26430;48.818;9.244;2022-07-29T13:47:16;19.60;99.90
2447;DHT22;26430;48.818;9.244;2022-07-29T13:49:41;19.70;99.90
2447;DHT22;26430;48.818;9.244;2022-07-29T13:52:07;19.90;99.90
2447;DHT22;26430;48.818;9.244;2022-07-29T13:54:33;20.10;99.90
2447;DHT22;26430;48.818;9.244;2022-07-29T13:57:03;20.30;99.90
2447;DHT22;26430;48.818;9.244;2022-07-29T13:59:28;20.60;99.90
2447;DHT22;26430;48.818;9.244;2022-07-29T14:01:54;21.20;99.90
2447;DHT22;26430;48.818;9.244;2022-07-29T14:04:20;21.40;99.90
2447;DHT22;26430;48.818;9.244;2022-07-29T14:06:46;21.40;99.90
2447;DHT22;26430;48.818;9.244;2022-07-29T14:09:12;21.30;99.90
2447;DHT22;26430;48.818;9.244;2022-07-29T14:11:38;21.50;99.90
2447;DHT22;26430;48.818;9.244;2022-07-29T14:14:06;21.50;99.90
2447;DHT22;26430;48.818;9.244;2022-07-29T14:16:32;21.60;99.90
2447;DHT22;26430;48.818;9.244;2022-07-29T14:18:58;21.40;99.90
2447;DHT22;26430;48.818;9.244;2022-07-29T14:21:23;21.60;99.90
2447;DHT22;26430;48.818;9.244;2022-07-29T14:23:49;21.50;99.90
2447;DHT22;26430;48.818;9.244;2022-07-29T14:26:15;21.80;99.90
2447;DHT22;26430;48.818;9.244;2022-07-29T14:28:41;22.00;99.90
2447;DHT22;26430;48.818;9.244;2022-07-29T14:31:07;22.00;99.90
2447;DHT22;26430;48.818;9.244;2022-07-29T14:33:32;21.70;99.90
2447;DHT22;26430;48.818;9.244;2022-07-29T14:35:58;21.80;99.90
2447;DHT22;26430;48.818;9.244;2022-07-29T14:38:24;21.80;99.90
2447;DHT22;26430;48.818;9.244;2022-07-29T14:40:49;22.00;99.90
2447;DHT22;26430;48.818;9.244;2022-07-29T14:43:15;22.00;99.90
2447;DHT22;26430;48.818;9.244;2022-07-29T14:45:41;22.10;99.90
2447;DHT22;26430;48.818;9.244;2022-07-29T14:48:06;22.00;99.90
2447;DHT22;26430;48.818;9.244;2022-07-29T14:50:32;21.80;99.90
2447;DHT22;26430;48.818;9.244;2022-07-29T14:52:59;21.90;99.90
2447;DHT22;26430;48.818;9.244;2022-07-29T14:55:25;22.00;99.90
2447;DHT22;26430;48.818;9.244;2022-07-29T14:57:51;22.20;99.90
2447;DHT22;26430;48.818;9.244;2022-07-29T15:00:17;22.20;99.90
2447;DHT22;26430;48.818;9.244;2022-07-29T15:02:43;22.00;99.90
2447;DHT22;26430;48.818;9.244;2022-07-29T15:05:09;22.20;99.90
2447;DHT22;26430;48.818;9.244;2022-07-29T15:07:34;22.20;99.90
2447;DHT22;26430;48.818;9.244;2022-07-29T15:10:00;22.20;99.90
2447;DHT22;26430;48.818;9.244;2022-07-29T15:12:25;22.20;99.90
2447;DHT22;26430;48.818;9.244;2022-07-29T15:14:51;22.10;99.90
2447;DHT22;26430;48.818;9.244;2022-07-29T15:17:18;22.10;99.90
2447;DHT22;26430;48.818;9.244;2022-07-29T15:19:44;22.20;99.90
2447;DHT22;26430;48.818;9.244;2022-07-29T15:22:09;22.20;99.90
2447;DHT22;26430;48.818;9.244;2022-07-29T15:24:35;22.30;99.90
2447;DHT22;26430;48.818;9.244;2022-07-29T15:27:00;22.50;99.90
2447;DHT22;26430;48.818;9.244;2022-07-29T15:29:27;22.60;99.90
2447;DHT22;26430;48.818;9.244;2022-07-29T15:31:52;22.60;99.90
2447;DHT22;26430;48.818;9.244;2022-07-29T15:34:18;22.40;99.90
2447;DHT22;26430;48.818;9.244;2022-07-29T15:36:46;22.40;99.90
2447;DHT22;26430;48.818;9.244;2022-07-29T15:39:11;22.50;99.90
2447;DHT22;26430;48.818;9.244;2022-07-29T15:41:37;22.50;99.90
2447;DHT22;26430;48.818;9.244;2022-07-29T15:44:03;22.40;99.90
2447;DHT22;26430;48.818;9.244;2022-07-29T15:46:29;22.30;99.90
2447;DHT22;26430;48.818;9.244;2022-07-29T15:49:13;22.30;99.90
2447;DHT22;26430;48.818;9.244;2022-07-29T15:51:39;22.50;99.90
2447;DHT22;26430;48.818;9.244;2022-07-29T15:54:05;22.60;99.90
2447;DHT22;26430;48.818;9.244;2022-07-29T15:56:31;22.50;99.90
2447;DHT22;26430;48.818;9.244;2022-07-29T15:58:57;22.50;99.90
2447;DHT22;26430;48.818;9.244;2022-07-29T16:01:23;22.50;99.90
2447;DHT22;26430;48.818;9.244;2022-07-29T16:03:49;22.60;99.90
2447;DHT22;26430;48.818;9.244;2022-07-29T16:06:15;22.70;99.90
2447;DHT22;26430;48.818;9.244;2022-07-29T16:08:41;22.70;99.90
2447;DHT22;26430;48.818;9.244;2022-07-29T16:11:07;22.60;99.90
2447;DHT22;26430;48.818;9.244;2022-07-29T16:13:32;22.50;99.90
2447;DHT22;26430;48.818;9.244;2022-07-29T16:15:58;22.40;99.90
2447;DHT22;26430;48.818;9.244;2022-07-29T16:18:23;22.30;99.90
2447;DHT22;26430;48.818;9.244;2022-07-29T16:20:49;22.30;99.90
2447;DHT22;26430;48.818;9.244;2022-07-29T16:23:15;22.30;99.90
2447;DHT22;26430;48.818;9.244;2022-07-29T16:25:41;22.40;99.90
2447;DHT22;26430;48.818;9.244;2022-07-29T16:28:07;22.30;99.90
2447;DHT22;26430;48.818;9.244;2022-07-29T16:30:33;22.50;99.90
2447;DHT22;26430;48.818;9.244;2022-07-29T16:33:01;22.40;99.90
2447;DHT22;26430;48.818;9.244;2022-07-29T16:35:27;22.40;99.90
2447;DHT22;26430;48.818;9.244;2022-07-29T16:37:55;22.50;99.90
2447;DHT22;26430;48.818;9.244;2022-07-29T16:40:20;22.60;99.90